sensor_id;sensor_type;location;lat;lon;timestamp;P1;durP1;ratioP1;P2;durP2;ratioP2
7017;SDS011;3549;42.162;24.726;2023-11-21T00:00:33;4.57;;;3.10;;
7017;SDS011;3549;42.162;24.726;2023-11-21T00:02:58;5.37;;;3.10;;
7017;SDS011;3549;42.162;24.726;2023-11-21T00:05:24;3.83;;;2.70;;
7017;SDS011;3549;42.162;24.726;2023-11-21T00:07:49;5.90;;;2.83;;
7017;SDS011;3549;42.162;24.726;2023-11-21T00:10:16;3.97;;;2.67;;
7017;SDS011;3549;42.162;24.726;2023-11-21T00:12:41;3.50;;;2.53;;
7017;SDS011;3549;42.162;24.726;2023-11-21T00:15:07;5.97;;;3.23;;
7017;SDS011;3549;42.162;24.726;2023-11-21T00:17:35;5.30;;;3.20;;
7017;SDS011;3549;42.162;24.726;2023-11-21T00:20:02;20.13;;;8.53;;
7017;SDS011;3549;42.162;24.726;2023-11-21T00:22:31;18.33;;;8.53;;
7017;SDS011;3549;42.162;24.726;2023-11-21T00:24:57;16.23;;;7.43;;
7017;SDS011;3549;42.162;24.726;2023-11-21T00:27:23;9.90;;;5.07;;
7017;SDS011;3549;42.162;24.726;2023-11-21T00:29:48;12.83;;;6.20;;
7017;SDS011;3549;42.162;24.726;2023-11-21T00:32:13;10.83;;;5.70;;
7017;SDS011;3549;42.162;24.726;2023-11-21T00:34:39;9.37;;;5.10;;
7017;SDS011;3549;42.162;24.726;2023-11-21T00:37:05;17.33;;;8.70;;
7017;SDS011;3549;42.162;24.726;2023-11-21T00:39:30;28.57;;;12.03;;
7017;SDS011;3549;42.162;24.726;2023-11-21T00:41:55;19.47;;;9.70;;
7017;SDS011;3549;42.162;24.726;2023-11-21T00:44:21;14.47;;;7.57;;
7017;SDS011;3549;42.162;24.726;2023-11-21T00:46:46;9.93;;;5.43;;
7017;SDS011;3549;42.162;24.726;2023-11-21T00:49:12;10.40;;;5.70;;
7017;SDS011;3549;42.162;24.726;2023-11-21T00:51:38;12.83;;;6.60;;
7017;SDS011;3549;42.162;24.726;2023-11-21T00:54:03;11.67;;;6.47;;
7017;SDS011;3549;42.162;24.726;2023-11-21T00:56:29;8.30;;;4.87;;
7017;SDS011;3549;42.162;24.726;2023-11-21T00:58:54;14.40;;;5.27;;
7017;SDS011;3549;42.162;24.726;2023-11-21T01:01:20;10.43;;;5.20;;
7017;SDS011;3549;42.162;24.726;2023-11-21T01:03:47;10.73;;;5.40;;
7017;SDS011;3549;42.162;24.726;2023-11-21T01:06:12;10.77;;;5.63;;
7017;SDS011;3549;42.162;24.726;2023-11-21T01:08:38;12.10;;;5.87;;
7017;SDS011;3549;42.162;24.726;2023-11-21T01:11:03;10.17;;;5.47;;
7017;SDS011;3549;42.162;24.726;2023-11-21T01:13:29;13.00;;;6.50;;
7017;SDS011;3549;42.162;24.726;2023-11-21T01:15:55;12.53;;;7.03;;
7017;SDS011;3549;42.162;24.726;2023-11-21T01:18:21;13.13;;;6.80;;
7017;SDS011;3549;42.162;24.726;2023-11-21T01:20:46;12.53;;;6.20;;
7017;SDS011;3549;42.162;24.726;2023-11-21T01:23:15;15.33;;;6.83;;
7017;SDS011;3549;42.162;24.726;2023-11-21T01:25:40;13.70;;;6.23;;
7017;SDS011;3549;42.162;24.726;2023-11-21T01:28:05;17.30;;;6.63;;
7017;SDS011;3549;42.162;24.726;2023-11-21T01:30:32;16.27;;;7.23;;
7017;SDS011;3549;42.162;24.726;2023-11-21T01:32:58;16.00;;;8.23;;
7017;SDS011;3549;42.162;24.726;2023-11-21T01:35:23;15.43;;;7.70;;
7017;SDS011;3549;42.162;24.726;2023-11-21T01:37:49;14.10;;;6.93;;
7017;SDS011;3549;42.162;24.726;2023-11-21T01:40:15;13.30;;;7.10;;
7017;SDS011;3549;42.162;24.726;2023-11-21T01:42:41;12.93;;;7.30;;
7017;SDS011;3549;42.162;24.726;2023-11-21T01:45:08;12.17;;;7.23;;
7017;SDS011;3549;42.162;24.726;2023-11-21T01:47:34;15.70;;;7.20;;
7017;SDS011;3549;42.162;24.726;2023-11-21T01:50:01;11.50;;;7.40;;
7017;SDS011;3549;42.162;24.726;2023-11-21T01:52:29;13.00;;;7.20;;
7017;SDS011;3549;42.162;24.726;2023-11-21T01:54:55;17.73;;;7.53;;
7017;SDS011;3549;42.162;24.726;2023-11-21T01:57:22;14.10;;;7.70;;
7017;SDS011;3549;42.162;24.726;2023-11-21T01:59:48;14.87;;;7.70;;
7017;SDS011;3549;42.162;24.726;2023-11-21T02:02:15;15.07;;;7.97;;
7017;SDS011;3549;42.162;24.726;2023-11-21T02:04:40;14.90;;;7.97;;
7017;SDS011;3549;42.162;24.726;2023-11-21T02:07:06;14.47;;;8.03;;
7017;SDS011;3549;42.162;24.726;2023-11-21T02:09:32;15.13;;;7.80;;
7017;SDS011;3549;42.162;24.726;2023-11-21T02:11:58;13.47;;;7.37;;
7017;SDS011;3549;42.162;24.726;2023-11-21T02:14:25;13.10;;;7.10;;
7017;SDS011;3549;42.162;24.726;2023-11-21T02:16:52;13.80;;;8.07;;
7017;SDS011;3549;42.162;24.726;2023-11-21T02:19:19;16.63;;;8.03;;
7017;SDS011;3549;42.162;24.726;2023-11-21T02:21:49;14.80;;;8.77;;
7017;SDS011;3549;42.162;24.726;2023-11-21T02:24:17;13.43;;;7.80;;
7017;SDS011;3549;42.162;24.726;2023-11-21T02:26:47;14.97;;;8.50;;
7017;SDS011;3549;42.162;24.726;2023-11-21T02:29:16;16.37;;;8.70;;
7017;SDS011;3549;42.162;24.726;2023-11-21T02:31:47;15.27;;;8.23;;
7017;SDS011;3549;42.162;24.726;2023-11-21T02:34:17;18.10;;;9.13;;
7017;SDS011;3549;42.162;24.726;2023-11-21T02:36:43;14.70;;;8.00;;
7017;SDS011;3549;42.162;24.726;2023-11-21T02:39:12;14.87;;;7.73;;
7017;SDS011;3549;42.162;24.726;2023-11-21T02:41:39;14.13;;;8.00;;
7017;SDS011;3549;42.162;24.726;2023-11-21T02:44:05;19.03;;;8.53;;
7017;SDS011;3549;42.162;24.726;2023-11-21T02:46:34;14.70;;;7.73;;
7017;SDS011;3549;42.162;24.726;2023-11-21T02:49:01;15.97;;;8.60;;
7017;SDS011;3549;42.162;24.726;2023-11-21T02:51:27;14.27;;;8.40;;
7017;SDS011;3549;42.162;24.726;2023-11-21T02:53:52;16.03;;;8.13;;
7017;SDS011;3549;42.162;24.726;2023-11-21T02:56:18;15.90;;;8.23;;
7017;SDS011;3549;42.162;24.726;2023-11-21T02:58:43;15.80;;;8.27;;
7017;SDS011;3549;42.162;24.726;2023-11-21T03:01:09;17.17;;;7.83;;
7017;SDS011;3549;42.162;24.726;2023-11-21T03:03:36;14.37;;;7.87;;
7017;SDS011;3549;42.162;24.726;2023-11-21T03:06:05;13.77;;;8.07;;
7017;SDS011;3549;42.162;24.726;2023-11-21T03:08:31;13.30;;;7.47;;
7017;SDS011;3549;42.162;24.726;2023-11-21T03:10:57;14.33;;;7.57;;
7017;SDS011;3549;42.162;24.726;2023-11-21T03:13:23;13.73;;;7.03;;
7017;SDS011;3549;42.162;24.726;2023-11-21T03:15:48;14.20;;;7.70;;
7017;SDS011;3549;42.162;24.726;2023-11-21T03:18:13;14.10;;;7.80;;
7017;SDS011;3549;42.162;24.726;2023-11-21T03:20:39;21.27;;;7.97;;
7017;SDS011;3549;42.162;24.726;2023-11-21T03:23:04;14.27;;;7.57;;
7017;SDS011;3549;42.162;24.726;2023-11-21T03:25:30;16.00;;;7.90;;
7017;SDS011;3549;42.162;24.726;2023-11-21T03:27:56;15.67;;;7.57;;
7017;SDS011;3549;42.162;24.726;2023-11-21T03:30:21;16.73;;;8.10;;
7017;SDS011;3549;42.162;24.726;2023-11-21T03:32:47;17.53;;;8.13;;
7017;SDS011;3549;42.162;24.726;2023-11-21T03:35:13;15.10;;;8.77;;
7017;SDS011;3549;42.162;24.726;2023-11-21T03:37:38;17.03;;;8.30;;
7017;SDS011;3549;42.162;24.726;2023-11-21T03:40:06;17.43;;;8.63;;
7017;SDS011;3549;42.162;24.726;2023-11-21T03:42:33;17.57;;;7.80;;
7017;SDS011;3549;42.162;24.726;2023-11-21T03:44:59;15.70;;;8.07;;
7017;SDS011;3549;42.162;24.726;2023-11-21T03:47:26;17.10;;;8.33;;
7017;SDS011;3549;42.162;24.726;2023-11-21T03:49:52;15.27;;;8.30;;
7017;SDS011;3549;42.162;24.726;2023-11-21T03:52:18;15.53;;;7.83;;
7017;SDS011;3549;42.162;24.726;2023-11-21T03:54:43;15.23;;;7.27;;
7017;SDS011;3549;42.162;24.726;2023-11-21T03:57:09;14.63;;;7.73;;
7017;SDS011;3549;42.162;24.726;2023-11-21T03:59:34;17.20;;;10.20;;
7017;SDS011;3549;42.162;24.726;2023-11-21T04:02:00;17.83;;;8.50;;
7017;SDS011;3549;42.162;24.726;2023-11-21T04:04:25;19.93;;;10.43;;
7017;SDS011;3549;42.162;24.726;2023-11-21T04:06:50;61.63;;;28.00;;
7017;SDS011;3549;42.162;24.726;2023-11-21T04:09:17;86.27;;;35.03;;
7017;SDS011;3549;42.162;24.726;2023-11-21T04:11:42;88.37;;;39.63;;
7017;SDS011;3549;42.162;24.726;2023-11-21T04:14:10;161.20;;;71.00;;
7017;SDS011;3549;42.162;24.726;2023-11-21T04:16:36;131.60;;;62.10;;
7017;SDS011;3549;42.162;24.726;2023-11-21T04:19:01;95.63;;;46.63;;
7017;SDS011;3549;42.162;24.726;2023-11-21T04:21:26;91.97;;;42.10;;
7017;SDS011;3549;42.162;24.726;2023-11-21T04:23:52;63.57;;;31.10;;
7017;SDS011;3549;42.162;24.726;2023-11-21T04:26:17;55.80;;;26.13;;
7017;SDS011;3549;42.162;24.726;2023-11-21T04:28:43;61.67;;;31.37;;
7017;SDS011;3549;42.162;24.726;2023-11-21T04:31:08;44.87;;;20.03;;
7017;SDS011;3549;42.162;24.726;2023-11-21T04:33:34;47.00;;;22.23;;
7017;SDS011;3549;42.162;24.726;2023-11-21T04:35:59;45.53;;;18.90;;
7017;SDS011;3549;42.162;24.726;2023-11-21T04:38:24;33.37;;;14.13;;
7017;SDS011;3549;42.162;24.726;2023-11-21T04:40:50;104.27;;;39.97;;
7017;SDS011;3549;42.162;24.726;2023-11-21T04:43:15;64.63;;;30.97;;
7017;SDS011;3549;42.162;24.726;2023-11-21T04:45:40;55.23;;;28.30;;
7017;SDS011;3549;42.162;24.726;2023-11-21T04:48:06;48.33;;;21.23;;
7017;SDS011;3549;42.162;24.726;2023-11-21T04:50:33;55.00;;;20.77;;
7017;SDS011;3549;42.162;24.726;2023-11-21T04:52:59;36.23;;;15.20;;
7017;SDS011;3549;42.162;24.726;2023-11-21T04:55:24;36.23;;;14.47;;
7017;SDS011;3549;42.162;24.726;2023-11-21T04:57:53;30.10;;;15.27;;
7017;SDS011;3549;42.162;24.726;2023-11-21T05:00:18;43.23;;;16.17;;
7017;SDS011;3549;42.162;24.726;2023-11-21T05:02:44;35.07;;;14.03;;
7017;SDS011;3549;42.162;24.726;2023-11-21T05:05:10;38.53;;;16.87;;
7017;SDS011;3549;42.162;24.726;2023-11-21T05:07:35;50.63;;;23.43;;
7017;SDS011;3549;42.162;24.726;2023-11-21T05:10:01;38.93;;;20.30;;
7017;SDS011;3549;42.162;24.726;2023-11-21T05:12:30;62.50;;;30.33;;
7017;SDS011;3549;42.162;24.726;2023-11-21T05:15:01;130.53;;;59.40;;
7017;SDS011;3549;42.162;24.726;2023-11-21T05:17:28;32.90;;;16.13;;
7017;SDS011;3549;42.162;24.726;2023-11-21T05:19:54;39.43;;;17.73;;
7017;SDS011;3549;42.162;24.726;2023-11-21T05:22:19;55.97;;;22.67;;
7017;SDS011;3549;42.162;24.726;2023-11-21T05:24:45;87.93;;;36.50;;
7017;SDS011;3549;42.162;24.726;2023-11-21T05:27:10;124.93;;;49.23;;
7017;SDS011;3549;42.162;24.726;2023-11-21T05:29:36;138.60;;;57.20;;
7017;SDS011;3549;42.162;24.726;2023-11-21T05:32:02;130.20;;;54.27;;
7017;SDS011;3549;42.162;24.726;2023-11-21T05:34:28;127.00;;;57.03;;
7017;SDS011;3549;42.162;24.726;2023-11-21T05:36:53;97.07;;;46.73;;
7017;SDS011;3549;42.162;24.726;2023-11-21T05:39:19;86.43;;;38.00;;
7017;SDS011;3549;42.162;24.726;2023-11-21T05:41:45;64.30;;;28.10;;
7017;SDS011;3549;42.162;24.726;2023-11-21T05:44:11;68.50;;;29.03;;
7017;SDS011;3549;42.162;24.726;2023-11-21T05:46:39;52.17;;;25.67;;
7017;SDS011;3549;42.162;24.726;2023-11-21T05:49:05;47.77;;;19.33;;
7017;SDS011;3549;42.162;24.726;2023-11-21T05:51:31;51.10;;;21.23;;
7017;SDS011;3549;42.162;24.726;2023-11-21T05:53:56;48.30;;;22.53;;
7017;SDS011;3549;42.162;24.726;2023-11-21T05:56:21;49.37;;;22.77;;
7017;SDS011;3549;42.162;24.726;2023-11-21T05:58:47;57.50;;;27.97;;
7017;SDS011;3549;42.162;24.726;2023-11-21T06:01:12;54.80;;;25.87;;
7017;SDS011;3549;42.162;24.726;2023-11-21T06:03:38;84.57;;;34.97;;
7017;SDS011;3549;42.162;24.726;2023-11-21T06:06:04;79.97;;;32.83;;
7017;SDS011;3549;42.162;24.726;2023-11-21T06:08:30;87.63;;;33.93;;
7017;SDS011;3549;42.162;24.726;2023-11-21T06:10:55;88.67;;;33.40;;
7017;SDS011;3549;42.162;24.726;2023-11-21T06:13:21;61.43;;;30.97;;
7017;SDS011;3549;42.162;24.726;2023-11-21T06:15:50;106.60;;;49.63;;
7017;SDS011;3549;42.162;24.726;2023-11-21T06:18:16;119.70;;;61.20;;
7017;SDS011;3549;42.162;24.726;2023-11-21T06:20:44;104.70;;;53.17;;
7017;SDS011;3549;42.162;24.726;2023-11-21T06:23:10;64.93;;;33.23;;
7017;SDS011;3549;42.162;24.726;2023-11-21T06:25:35;59.70;;;32.67;;
7017;SDS011;3549;42.162;24.726;2023-11-21T06:28:01;47.37;;;22.97;;
7017;SDS011;3549;42.162;24.726;2023-11-21T06:30:27;49.93;;;24.83;;
7017;SDS011;3549;42.162;24.726;2023-11-21T06:32:54;102.93;;;41.00;;
7017;SDS011;3549;42.162;24.726;2023-11-21T06:35:20;59.27;;;27.77;;
7017;SDS011;3549;42.162;24.726;2023-11-21T06:37:45;254.73;;;60.27;;
7017;SDS011;3549;42.162;24.726;2023-11-21T06:40:14;124.43;;;50.53;;
7017;SDS011;3549;42.162;24.726;2023-11-21T06:42:40;80.43;;;37.53;;
7017;SDS011;3549;42.162;24.726;2023-11-21T06:45:06;238.53;;;62.67;;
7017;SDS011;3549;42.162;24.726;2023-11-21T06:47:33;101.73;;;40.80;;
7017;SDS011;3549;42.162;24.726;2023-11-21T06:49:58;222.73;;;94.80;;
7017;SDS011;3549;42.162;24.726;2023-11-21T06:52:25;80.70;;;35.87;;
7017;SDS011;3549;42.162;24.726;2023-11-21T06:54:50;41.23;;;17.67;;
7017;SDS011;3549;42.162;24.726;2023-11-21T06:57:16;30.33;;;13.60;;
7017;SDS011;3549;42.162;24.726;2023-11-21T06:59:42;26.37;;;12.80;;
7017;SDS011;3549;42.162;24.726;2023-11-21T07:02:07;22.40;;;10.90;;
7017;SDS011;3549;42.162;24.726;2023-11-21T07:04:33;20.43;;;9.83;;
7017;SDS011;3549;42.162;24.726;2023-11-21T07:06:59;30.67;;;13.00;;
7017;SDS011;3549;42.162;24.726;2023-11-21T07:09:24;27.63;;;12.87;;
7017;SDS011;3549;42.162;24.726;2023-11-21T07:11:51;33.23;;;14.50;;
7017;SDS011;3549;42.162;24.726;2023-11-21T07:14:17;34.80;;;16.90;;
7017;SDS011;3549;42.162;24.726;2023-11-21T07:16:44;70.33;;;33.90;;
7017;SDS011;3549;42.162;24.726;2023-11-21T07:19:10;64.37;;;30.97;;
7017;SDS011;3549;42.162;24.726;2023-11-21T07:21:37;54.73;;;25.77;;
7017;SDS011;3549;42.162;24.726;2023-11-21T07:24:04;39.80;;;20.90;;
7017;SDS011;3549;42.162;24.726;2023-11-21T07:26:31;50.47;;;27.67;;
7017;SDS011;3549;42.162;24.726;2023-11-21T07:28:58;76.47;;;42.20;;
7017;SDS011;3549;42.162;24.726;2023-11-21T07:31:24;78.37;;;46.27;;
7017;SDS011;3549;42.162;24.726;2023-11-21T07:33:50;47.90;;;27.37;;
7017;SDS011;3549;42.162;24.726;2023-11-21T07:36:19;38.50;;;21.53;;
7017;SDS011;3549;42.162;24.726;2023-11-21T07:38:46;56.40;;;33.67;;
7017;SDS011;3549;42.162;24.726;2023-11-21T07:41:11;52.13;;;30.97;;
7017;SDS011;3549;42.162;24.726;2023-11-21T07:43:40;48.63;;;28.97;;
7017;SDS011;3549;42.162;24.726;2023-11-21T07:46:06;41.90;;;24.87;;
7017;SDS011;3549;42.162;24.726;2023-11-21T07:48:33;44.90;;;25.57;;
7017;SDS011;3549;42.162;24.726;2023-11-21T07:51:00;34.60;;;18.57;;
7017;SDS011;3549;42.162;24.726;2023-11-21T07:53:27;27.67;;;16.37;;
7017;SDS011;3549;42.162;24.726;2023-11-21T07:55:55;26.77;;;16.30;;
7017;SDS011;3549;42.162;24.726;2023-11-21T07:58:21;37.60;;;20.53;;
7017;SDS011;3549;42.162;24.726;2023-11-21T08:00:46;76.13;;;35.63;;
7017;SDS011;3549;42.162;24.726;2023-11-21T08:03:13;45.87;;;24.00;;
7017;SDS011;3549;42.162;24.726;2023-11-21T08:05:39;22.53;;;12.40;;
7017;SDS011;3549;42.162;24.726;2023-11-21T08:08:04;28.03;;;12.17;;
7017;SDS011;3549;42.162;24.726;2023-11-21T08:10:30;28.57;;;15.90;;
7017;SDS011;3549;42.162;24.726;2023-11-21T08:12:55;30.10;;;15.87;;
7017;SDS011;3549;42.162;24.726;2023-11-21T08:15:21;28.23;;;14.03;;
7017;SDS011;3549;42.162;24.726;2023-11-21T08:17:46;30.53;;;16.67;;
7017;SDS011;3549;42.162;24.726;2023-11-21T08:20:13;22.77;;;11.97;;
7017;SDS011;3549;42.162;24.726;2023-11-21T08:22:41;26.93;;;11.20;;
7017;SDS011;3549;42.162;24.726;2023-11-21T08:25:09;17.60;;;10.40;;
7017;SDS011;3549;42.162;24.726;2023-11-21T08:27:35;21.53;;;11.27;;
7017;SDS011;3549;42.162;24.726;2023-11-21T08:30:01;22.90;;;11.60;;
7017;SDS011;3549;42.162;24.726;2023-11-21T08:32:28;27.57;;;10.93;;
7017;SDS011;3549;42.162;24.726;2023-11-21T08:34:55;24.60;;;9.77;;
7017;SDS011;3549;42.162;24.726;2023-11-21T08:37:21;13.97;;;8.70;;
7017;SDS011;3549;42.162;24.726;2023-11-21T08:39:47;33.07;;;17.00;;
7017;SDS011;3549;42.162;24.726;2023-11-21T08:42:13;35.17;;;18.00;;
7017;SDS011;3549;42.162;24.726;2023-11-21T08:44:39;17.83;;;8.80;;
7017;SDS011;3549;42.162;24.726;2023-11-21T08:47:05;16.80;;;10.93;;
7017;SDS011;3549;42.162;24.726;2023-11-21T08:49:30;16.90;;;8.13;;
7017;SDS011;3549;42.162;24.726;2023-11-21T08:51:56;13.23;;;7.90;;
7017;SDS011;3549;42.162;24.726;2023-11-21T08:54:24;12.90;;;7.47;;
7017;SDS011;3549;42.162;24.726;2023-11-21T08:56:50;11.63;;;7.47;;
7017;SDS011;3549;42.162;24.726;2023-11-21T08:59:16;12.50;;;6.97;;
7017;SDS011;3549;42.162;24.726;2023-11-21T09:01:41;12.57;;;6.50;;
7017;SDS011;3549;42.162;24.726;2023-11-21T09:04:07;18.63;;;7.57;;
7017;SDS011;3549;42.162;24.726;2023-11-21T09:06:32;14.50;;;8.00;;
7017;SDS011;3549;42.162;24.726;2023-11-21T09:08:57;10.40;;;6.40;;
7017;SDS011;3549;42.162;24.726;2023-11-21T09:11:23;15.43;;;6.70;;
7017;SDS011;3549;42.162;24.726;2023-11-21T09:13:50;12.33;;;7.17;;
7017;SDS011;3549;42.162;24.726;2023-11-21T09:16:16;14.27;;;7.20;;
7017;SDS011;3549;42.162;24.726;2023-11-21T09:18:42;12.40;;;6.50;;
7017;SDS011;3549;42.162;24.726;2023-11-21T09:21:07;13.03;;;7.77;;
7017;SDS011;3549;42.162;24.726;2023-11-21T09:23:33;11.23;;;6.97;;
7017;SDS011;3549;42.162;24.726;2023-11-21T09:25:59;10.07;;;6.30;;
7017;SDS011;3549;42.162;24.726;2023-11-21T09:28:26;11.23;;;7.33;;
7017;SDS011;3549;42.162;24.726;2023-11-21T09:30:52;11.93;;;7.30;;
7017;SDS011;3549;42.162;24.726;2023-11-21T09:33:18;12.80;;;7.50;;
7017;SDS011;3549;42.162;24.726;2023-11-21T09:35:44;13.10;;;7.10;;
7017;SDS011;3549;42.162;24.726;2023-11-21T09:38:09;12.27;;;7.20;;
7017;SDS011;3549;42.162;24.726;2023-11-21T09:40:36;12.70;;;7.60;;
7017;SDS011;3549;42.162;24.726;2023-11-21T09:43:04;12.10;;;7.30;;
7017;SDS011;3549;42.162;24.726;2023-11-21T09:45:34;13.43;;;7.10;;
7017;SDS011;3549;42.162;24.726;2023-11-21T09:48:00;21.97;;;11.77;;
7017;SDS011;3549;42.162;24.726;2023-11-21T09:50:27;17.33;;;9.10;;
7017;SDS011;3549;42.162;24.726;2023-11-21T09:55:49;13.70;;;7.10;;
7017;SDS011;3549;42.162;24.726;2023-11-21T09:58:17;9.90;;;6.37;;
7017;SDS011;3549;42.162;24.726;2023-11-21T10:00:45;16.07;;;7.10;;
7017;SDS011;3549;42.162;24.726;2023-11-21T10:03:12;9.77;;;6.40;;
7017;SDS011;3549;42.162;24.726;2023-11-21T10:05:38;10.60;;;6.90;;
7017;SDS011;3549;42.162;24.726;2023-11-21T10:08:06;11.17;;;7.20;;
7017;SDS011;3549;42.162;24.726;2023-11-21T10:10:34;13.67;;;7.90;;
7017;SDS011;3549;42.162;24.726;2023-11-21T10:13:02;12.53;;;7.67;;
7017;SDS011;3549;42.162;24.726;2023-11-21T10:15:33;13.93;;;8.03;;
7017;SDS011;3549;42.162;24.726;2023-11-21T10:18:03;12.33;;;8.03;;
7017;SDS011;3549;42.162;24.726;2023-11-21T10:20:31;15.10;;;7.97;;
7017;SDS011;3549;42.162;24.726;2023-11-21T10:22:58;14.13;;;7.53;;
7017;SDS011;3549;42.162;24.726;2023-11-21T10:25:26;12.83;;;7.80;;
7017;SDS011;3549;42.162;24.726;2023-11-21T10:27:55;20.87;;;8.50;;
7017;SDS011;3549;42.162;24.726;2023-11-21T10:30:32;16.50;;;8.50;;
7017;SDS011;3549;42.162;24.726;2023-11-21T10:33:09;12.73;;;8.30;;
7017;SDS011;3549;42.162;24.726;2023-11-21T10:35:50;20.80;;;8.50;;
7017;SDS011;3549;42.162;24.726;2023-11-21T10:38:20;12.20;;;7.87;;
7017;SDS011;3549;42.162;24.726;2023-11-21T10:40:51;14.47;;;8.60;;
7017;SDS011;3549;42.162;24.726;2023-11-21T10:43:17;14.47;;;8.90;;
7017;SDS011;3549;42.162;24.726;2023-11-21T10:45:43;19.30;;;9.23;;
7017;SDS011;3549;42.162;24.726;2023-11-21T10:48:10;16.67;;;9.27;;
7017;SDS011;3549;42.162;24.726;2023-11-21T10:50:38;17.73;;;9.20;;
7017;SDS011;3549;42.162;24.726;2023-11-21T10:53:04;16.13;;;9.83;;
7017;SDS011;3549;42.162;24.726;2023-11-21T10:55:30;16.37;;;9.30;;
7017;SDS011;3549;42.162;24.726;2023-11-21T10:57:58;21.00;;;10.63;;
7017;SDS011;3549;42.162;24.726;2023-11-21T11:00:27;18.37;;;10.30;;
7017;SDS011;3549;42.162;24.726;2023-11-21T11:02:53;20.83;;;9.60;;
7017;SDS011;3549;42.162;24.726;2023-11-21T11:05:20;16.90;;;9.83;;
7017;SDS011;3549;42.162;24.726;2023-11-21T11:07:50;16.60;;;10.57;;
7017;SDS011;3549;42.162;24.726;2023-11-21T11:10:24;20.70;;;10.47;;
7017;SDS011;3549;42.162;24.726;2023-11-21T11:12:52;20.97;;;10.20;;
7017;SDS011;3549;42.162;24.726;2023-11-21T11:15:22;17.73;;;9.90;;
7017;SDS011;3549;42.162;24.726;2023-11-21T11:17:48;19.57;;;10.43;;
7017;SDS011;3549;42.162;24.726;2023-11-21T11:20:14;21.43;;;10.90;;
7017;SDS011;3549;42.162;24.726;2023-11-21T11:22:44;18.77;;;10.77;;
7017;SDS011;3549;42.162;24.726;2023-11-21T11:25:46;19.30;;;10.93;;
7017;SDS011;3549;42.162;24.726;2023-11-21T11:28:47;22.27;;;10.60;;
7017;SDS011;3549;42.162;24.726;2023-11-21T11:37:04;23.60;;;12.53;;
7017;SDS011;3549;42.162;24.726;2023-11-21T11:39:37;26.23;;;13.10;;
7017;SDS011;3549;42.162;24.726;2023-11-21T11:42:06;34.70;;;18.20;;
7017;SDS011;3549;42.162;24.726;2023-11-21T11:47:14;61.03;;;28.43;;
7017;SDS011;3549;42.162;24.726;2023-11-21T11:55:16;32.83;;;19.77;;
7017;SDS011;3549;42.162;24.726;2023-11-21T11:57:47;34.60;;;15.43;;
7017;SDS011;3549;42.162;24.726;2023-11-21T12:02:49;27.13;;;12.63;;
7017;SDS011;3549;42.162;24.726;2023-11-21T12:05:31;24.13;;;11.47;;
7017;SDS011;3549;42.162;24.726;2023-11-21T12:07:59;18.60;;;7.90;;
7017;SDS011;3549;42.162;24.726;2023-11-21T12:10:27;20.10;;;7.80;;
7017;SDS011;3549;42.162;24.726;2023-11-21T12:12:55;38.77;;;10.70;;
7017;SDS011;3549;42.162;24.726;2023-11-21T12:15:22;32.47;;;9.60;;
7017;SDS011;3549;42.162;24.726;2023-11-21T12:17:48;23.93;;;9.90;;
7017;SDS011;3549;42.162;24.726;2023-11-21T12:20:15;25.50;;;10.10;;
7017;SDS011;3549;42.162;24.726;2023-11-21T12:22:50;21.67;;;9.03;;
7017;SDS011;3549;42.162;24.726;2023-11-21T12:27:51;23.80;;;10.37;;
7017;SDS011;3549;42.162;24.726;2023-11-21T12:30:18;15.97;;;8.53;;
7017;SDS011;3549;42.162;24.726;2023-11-21T12:32:50;38.17;;;14.90;;
7017;SDS011;3549;42.162;24.726;2023-11-21T12:35:17;18.10;;;7.80;;
7017;SDS011;3549;42.162;24.726;2023-11-21T12:37:46;16.50;;;6.70;;
7017;SDS011;3549;42.162;24.726;2023-11-21T12:40:12;11.77;;;7.00;;
7017;SDS011;3549;42.162;24.726;2023-11-21T12:42:46;14.90;;;7.33;;
7017;SDS011;3549;42.162;24.726;2023-11-21T12:47:45;12.07;;;7.70;;
7017;SDS011;3549;42.162;24.726;2023-11-21T12:50:21;15.60;;;8.43;;
7017;SDS011;3549;42.162;24.726;2023-11-21T12:52:49;13.67;;;9.40;;
7017;SDS011;3549;42.162;24.726;2023-11-21T12:55:20;16.60;;;9.50;;
7017;SDS011;3549;42.162;24.726;2023-11-21T12:57:52;13.30;;;8.67;;
7017;SDS011;3549;42.162;24.726;2023-11-21T13:00:31;14.50;;;9.23;;
7017;SDS011;3549;42.162;24.726;2023-11-21T13:02:58;14.93;;;9.37;;
7017;SDS011;3549;42.162;24.726;2023-11-21T13:05:29;18.87;;;9.53;;
7017;SDS011;3549;42.162;24.726;2023-11-21T13:07:56;15.23;;;10.43;;
7017;SDS011;3549;42.162;24.726;2023-11-21T13:10:26;18.30;;;11.30;;
7017;SDS011;3549;42.162;24.726;2023-11-21T13:12:59;17.73;;;11.13;;
7017;SDS011;3549;42.162;24.726;2023-11-21T13:15:28;21.37;;;12.47;;
7017;SDS011;3549;42.162;24.726;2023-11-21T13:17:56;18.53;;;12.83;;
7017;SDS011;3549;42.162;24.726;2023-11-21T13:20:23;19.53;;;12.57;;
7017;SDS011;3549;42.162;24.726;2023-11-21T13:22:50;18.60;;;12.60;;
7017;SDS011;3549;42.162;24.726;2023-11-21T13:25:24;22.03;;;12.93;;
7017;SDS011;3549;42.162;24.726;2023-11-21T13:27:52;20.67;;;12.67;;
7017;SDS011;3549;42.162;24.726;2023-11-21T13:30:21;22.03;;;12.57;;
7017;SDS011;3549;42.162;24.726;2023-11-21T13:32:59;22.77;;;13.27;;
7017;SDS011;3549;42.162;24.726;2023-11-21T13:35:32;21.90;;;12.20;;
7017;SDS011;3549;42.162;24.726;2023-11-21T13:38:20;24.83;;;12.67;;
7017;SDS011;3549;42.162;24.726;2023-11-21T13:40:52;23.23;;;12.13;;
7017;SDS011;3549;42.162;24.726;2023-11-21T13:43:20;19.47;;;11.67;;
7017;SDS011;3549;42.162;24.726;2023-11-21T13:45:49;29.57;;;14.30;;
7017;SDS011;3549;42.162;24.726;2023-11-21T13:48:37;20.27;;;9.50;;
7017;SDS011;3549;42.162;24.726;2023-11-21T13:51:07;18.50;;;10.37;;
7017;SDS011;3549;42.162;24.726;2023-11-21T13:53:41;28.83;;;15.83;;
7017;SDS011;3549;42.162;24.726;2023-11-21T13:56:07;38.50;;;21.20;;
7017;SDS011;3549;42.162;24.726;2023-11-21T13:58:34;26.93;;;17.13;;
7017;SDS011;3549;42.162;24.726;2023-11-21T14:01:18;34.03;;;18.67;;
7017;SDS011;3549;42.162;24.726;2023-11-21T14:03:58;26.30;;;15.40;;
7017;SDS011;3549;42.162;24.726;2023-11-21T14:06:34;49.30;;;18.07;;
7017;SDS011;3549;42.162;24.726;2023-11-21T14:09:07;33.70;;;16.50;;
7017;SDS011;3549;42.162;24.726;2023-11-21T14:11:33;34.47;;;20.07;;
7017;SDS011;3549;42.162;24.726;2023-11-21T14:14:02;23.20;;;11.77;;
7017;SDS011;3549;42.162;24.726;2023-11-21T14:16:27;113.93;;;54.43;;
7017;SDS011;3549;42.162;24.726;2023-11-21T14:18:53;51.03;;;27.30;;
7017;SDS011;3549;42.162;24.726;2023-11-21T14:21:26;28.27;;;15.30;;
7017;SDS011;3549;42.162;24.726;2023-11-21T14:23:52;24.03;;;11.70;;
7017;SDS011;3549;42.162;24.726;2023-11-21T14:26:19;21.03;;;11.43;;
7017;SDS011;3549;42.162;24.726;2023-11-21T14:28:45;20.63;;;11.60;;
7017;SDS011;3549;42.162;24.726;2023-11-21T14:31:13;44.90;;;20.23;;
7017;SDS011;3549;42.162;24.726;2023-11-21T14:33:41;36.70;;;16.23;;
7017;SDS011;3549;42.162;24.726;2023-11-21T14:36:07;25.23;;;11.50;;
7017;SDS011;3549;42.162;24.726;2023-11-21T14:38:35;48.20;;;21.43;;
7017;SDS011;3549;42.162;24.726;2023-11-21T14:41:02;35.27;;;13.90;;
7017;SDS011;3549;42.162;24.726;2023-11-21T14:43:27;30.60;;;15.90;;
7017;SDS011;3549;42.162;24.726;2023-11-21T14:45:55;31.77;;;16.20;;
7017;SDS011;3549;42.162;24.726;2023-11-21T14:48:21;44.43;;;22.00;;
7017;SDS011;3549;42.162;24.726;2023-11-21T14:51:05;33.77;;;16.40;;
7017;SDS011;3549;42.162;24.726;2023-11-21T14:53:30;21.83;;;12.23;;
7017;SDS011;3549;42.162;24.726;2023-11-21T14:56:09;22.13;;;11.43;;
7017;SDS011;3549;42.162;24.726;2023-11-21T14:58:35;21.30;;;11.67;;
7017;SDS011;3549;42.162;24.726;2023-11-21T15:01:02;28.03;;;12.33;;
7017;SDS011;3549;42.162;24.726;2023-11-21T15:03:29;21.33;;;11.30;;
7017;SDS011;3549;42.162;24.726;2023-11-21T15:05:57;23.17;;;12.13;;